createdAt,value
2019-04-25T00:01:17.340Z,8.78
2019-04-25T00:03:49.284Z,8.80
2019-04-25T00:06:23.045Z,9.50
2019-04-25T00:08:55.456Z,8.80
2019-04-25T00:11:27.489Z,8.35
2019-04-25T00:13:59.265Z,8.98
2019-04-25T00:16:32.807Z,8.70
2019-04-25T00:19:04.807Z,9.20
2019-04-25T00:21:51.687Z,9.58
2019-04-25T00:24:34.483Z,10.40
2019-04-25T00:27:06.663Z,9.30
2019-04-25T00:29:38.848Z,9.50
2019-04-25T00:32:11.726Z,8.73
2019-04-25T00:34:45.552Z,8.83
2019-04-25T00:37:17.321Z,10.50
2019-04-25T00:39:49.719Z,9.85
2019-04-25T00:42:23.123Z,8.63
2019-04-25T00:44:55.065Z,8.40
2019-04-25T00:47:26.851Z,8.75
2019-04-25T00:49:58.733Z,8.08
2019-04-25T00:52:31.357Z,8.78
2019-04-25T00:55:03.591Z,8.13
2019-04-25T00:57:36.850Z,9.83
2019-04-25T01:00:51.127Z,8.90
2019-04-25T01:03:26.997Z,8.65
2019-04-25T01:05:58.757Z,9.20
2019-04-25T01:08:31.945Z,8.53
2019-04-25T01:11:04.192Z,7.92
2019-04-25T01:13:35.951Z,8.10
2019-04-25T01:16:08.282Z,8.25
2019-04-25T01:18:40.087Z,8.05
2019-04-25T01:21:11.885Z,8.10
2019-04-25T01:23:43.969Z,7.95
2019-04-25T01:26:15.956Z,8.63
2019-04-25T01:28:47.815Z,7.92
2019-04-25T01:31:23.339Z,7.78
2019-04-25T01:33:55.698Z,8.30
2019-04-25T01:36:35.774Z,8.38
2019-04-25T01:39:21.198Z,7.87
2019-04-25T01:42:10.409Z,7.37
2019-04-25T01:44:44.710Z,7.72
2019-04-25T01:47:17.665Z,7.72
2019-04-25T01:49:50.221Z,7.95
2019-04-25T01:52:23.520Z,8.15
2019-04-25T01:54:56.259Z,7.25
2019-04-25T01:57:29.395Z,8.40
2019-04-25T02:00:01.883Z,8.18
2019-04-25T02:02:35.257Z,7.35
2019-04-25T02:05:08.319Z,7.83
2019-04-25T02:07:40.075Z,8.18
2019-04-25T02:10:13.460Z,8.30
2019-04-25T02:12:51.345Z,8.38
2019-04-25T02:15:27.262Z,7.03
2019-04-25T02:18:00.266Z,8.25
2019-04-25T02:20:33.920Z,8.28
2019-04-25T02:23:06.021Z,7.45
2019-04-25T02:25:39.006Z,7.53
2019-04-25T02:28:11.101Z,7.33
2019-04-25T02:30:45.156Z,6.87
2019-04-25T02:33:16.458Z,8.20
2019-04-25T02:35:48.332Z,7.40
2019-04-25T02:38:20.086Z,7.55
2019-04-25T02:40:55.839Z,7.83
2019-04-25T02:43:26.032Z,7.05
2019-04-25T02:46:25.528Z,7.75
2019-04-25T02:49:35.575Z,8.08
2019-04-25T02:52:25.681Z,7.78
2019-04-25T02:54:59.060Z,7.40
2019-04-25T02:57:31.006Z,6.85
2019-04-25T03:00:05.580Z,7.17
2019-04-25T03:02:38.175Z,8.10
2019-04-25T03:05:10.728Z,7.62
2019-04-25T03:07:44.551Z,7.28
2019-04-25T03:10:16.059Z,7.20
2019-04-25T03:12:47.815Z,6.87
2019-04-25T03:15:19.707Z,7.73
2019-04-25T03:17:51.478Z,7.78
2019-04-25T03:20:54.923Z,7.47
2019-04-25T03:23:42.490Z,8.00
2019-04-25T03:26:13.614Z,7.80
2019-04-25T03:28:45.347Z,7.03
2019-04-25T03:31:22.613Z,7.55
2019-04-25T03:33:51.230Z,7.95
2019-04-25T03:36:23.843Z,8.03
2019-04-25T03:38:56.042Z,8.33
2019-04-25T03:41:27.809Z,8.30
2019-04-25T03:43:59.609Z,7.35
2019-04-25T03:46:33.310Z,8.15
2019-04-25T03:49:06.065Z,8.53
2019-04-25T03:51:38.174Z,8.10
2019-04-25T03:54:10.615Z,7.58
2019-04-25T03:56:53.262Z,8.30
2019-04-25T03:59:16.194Z,8.73
2019-04-25T04:01:48.036Z,8.75
2019-04-25T04:04:19.802Z,8.88
2019-04-25T04:06:51.623Z,8.48
2019-04-25T04:09:24.012Z,8.75
2019-04-25T04:11:56.490Z,9.58
2019-04-25T04:14:28.356Z,9.03
2019-04-25T04:17:37.103Z,7.78
2019-04-25T04:20:26.998Z,9.50
2019-04-25T04:23:09.501Z,9.45
2019-04-25T04:25:41.350Z,9.50
2019-04-25T04:28:14.090Z,8.00
2019-04-25T04:30:46.745Z,8.20
2019-04-25T04:33:29.617Z,9.50
2019-04-25T04:35:54.002Z,7.58
2019-04-25T04:38:25.863Z,8.33
2019-04-25T04:40:57.634Z,9.03
2019-04-25T04:43:29.453Z,9.53
2019-04-25T04:46:01.205Z,9.80
2019-04-25T04:48:34.646Z,9.03
2019-04-25T04:51:06.389Z,9.48
2019-04-25T04:53:38.152Z,9.90
2019-04-25T04:56:09.922Z,9.78
2019-04-25T04:58:43.101Z,9.43
2019-04-25T05:01:16.814Z,10.68
2019-04-25T05:03:55.619Z,9.73
2019-04-25T05:06:46.251Z,10.43
2019-04-25T05:09:23.719Z,10.18
2019-04-25T05:11:55.959Z,10.93
2019-04-25T05:14:27.730Z,10.10
2019-04-25T05:16:59.520Z,10.75
2019-04-25T05:19:31.307Z,10.78
2019-04-25T05:22:03.640Z,9.68
2019-04-25T05:24:35.738Z,9.95
2019-04-25T05:27:07.604Z,10.32
2019-04-25T05:29:39.541Z,10.00
2019-04-25T05:32:11.295Z,10.45
2019-04-25T05:34:44.090Z,10.03
2019-04-25T05:37:17.583Z,9.78
2019-04-25T05:39:49.690Z,9.10
2019-04-25T05:42:46.369Z,7.97
2019-04-25T05:45:19.942Z,9.55
2019-04-25T05:47:54.089Z,9.63
2019-04-25T05:50:26.514Z,9.83
2019-04-25T05:52:58.278Z,9.95
2019-04-25T05:55:30.092Z,9.60
2019-04-25T05:58:03.795Z,8.90
2019-04-25T06:00:35.395Z,8.60
2019-04-25T06:03:07.298Z,7.95
2019-04-25T06:05:39.280Z,8.68
2019-04-25T06:08:11.069Z,10.25
2019-04-25T06:11:01.694Z,9.90
2019-04-25T06:13:43.377Z,9.00
2019-04-25T06:16:23.666Z,8.18
2019-04-25T06:19:14.116Z,8.53
2019-04-25T06:21:44.838Z,9.70
2019-04-25T06:24:34.915Z,8.43
2019-04-25T06:27:26.924Z,8.33
2019-04-25T06:30:06.053Z,8.63
2019-04-25T06:32:37.953Z,8.95
2019-04-25T06:35:10.107Z,9.68
2019-04-25T06:37:43.734Z,8.28
2019-04-25T06:40:18.134Z,9.10
2019-04-25T06:42:49.962Z,8.20
2019-04-25T06:45:41.703Z,8.60
2019-04-25T06:48:33.891Z,7.70
2019-04-25T06:51:06.014Z,8.68
2019-04-25T06:53:38.111Z,9.00
2019-04-25T06:56:09.907Z,8.38
2019-04-25T06:58:41.708Z,9.05
2019-04-25T07:01:13.701Z,8.98
2019-04-25T07:03:45.656Z,8.60
2019-04-25T07:06:17.541Z,8.08
2019-04-25T07:08:49.600Z,8.50
2019-04-25T07:11:21.351Z,7.95
2019-04-25T07:13:53.678Z,8.05
2019-04-25T07:16:26.063Z,8.35
2019-04-25T07:18:58.142Z,8.23
2019-04-25T07:21:30.284Z,8.58
2019-04-25T07:24:02.268Z,9.08
2019-04-25T07:27:03.798Z,8.25
2019-04-25T07:30:00.947Z,7.15
2019-04-25T07:32:45.343Z,7.97
2019-04-25T07:35:17.799Z,9.40
2019-04-25T07:37:51.053Z,8.75
2019-04-25T07:40:25.575Z,9.45
2019-04-25T07:42:57.887Z,8.50
2019-04-25T07:45:30.786Z,9.15
2019-04-25T07:48:04.028Z,8.58
2019-04-25T07:50:36.704Z,8.40
2019-04-25T07:53:08.686Z,8.50
2019-04-25T07:55:40.494Z,8.85
2019-04-25T07:58:12.346Z,8.43
2019-04-25T08:00:44.245Z,9.43
2019-04-25T08:03:16.408Z,8.65
2019-04-25T08:05:48.161Z,9.80
2019-04-25T08:08:19.930Z,7.92
2019-04-25T08:11:04.207Z,8.90
2019-04-25T08:13:54.025Z,8.35
2019-04-25T08:16:28.860Z,8.25
2019-04-25T08:19:03.951Z,8.80
2019-04-25T08:21:38.347Z,9.63
2019-04-25T08:24:10.603Z,9.38
2019-04-25T08:26:43.688Z,8.33
2019-04-25T08:29:15.666Z,8.05
2019-04-25T08:31:47.724Z,8.78
2019-04-25T08:34:21.019Z,8.65
2019-04-25T08:36:54.329Z,8.58
2019-04-25T08:39:26.714Z,8.83
2019-04-25T08:41:58.852Z,8.85
2019-04-25T08:44:31.551Z,7.75
2019-04-25T08:47:04.568Z,7.45
2019-04-25T08:49:44.122Z,8.88
2019-04-25T08:52:15.596Z,8.20
2019-04-25T08:55:11.172Z,8.30
2019-04-25T08:57:55.072Z,8.33
2019-04-25T09:00:58.054Z,8.80
2019-04-25T09:03:24.199Z,8.23
2019-04-25T09:05:56.204Z,8.65
2019-04-25T09:08:28.220Z,8.20
2019-04-25T09:11:00.144Z,6.80
2019-04-25T09:13:33.049Z,8.28
2019-04-25T09:16:05.775Z,7.90
2019-04-25T09:18:38.193Z,8.15
2019-04-25T09:21:10.158Z,8.48
2019-04-25T09:23:43.396Z,7.72
2019-04-25T09:26:15.423Z,6.62
2019-04-25T09:28:47.518Z,8.18
2019-04-25T09:31:20.679Z,7.78
2019-04-25T09:33:55.193Z,7.37
2019-04-25T09:36:27.078Z,8.25
2019-04-25T09:39:01.664Z,6.72
2019-04-25T09:41:35.987Z,7.42
2019-04-25T09:44:10.377Z,7.45
2019-04-25T09:46:43.788Z,6.87
2019-04-25T09:49:23.805Z,6.90
2019-04-25T09:52:10.853Z,7.65
2019-04-25T09:54:48.429Z,6.83
2019-04-25T09:57:45.950Z,7.00
2019-04-25T10:00:45.925Z,7.55
2019-04-25T10:03:19.498Z,7.40
2019-04-25T10:05:51.791Z,8.50
2019-04-25T10:08:24.232Z,7.67
2019-04-25T10:10:56.170Z,7.47
2019-04-25T10:13:29.202Z,6.95
2019-04-25T10:16:12.993Z,6.83
2019-04-25T10:18:45.797Z,7.70
2019-04-25T10:21:18.042Z,7.37
2019-04-25T10:23:51.280Z,7.42
2019-04-25T10:26:23.666Z,7.80
2019-04-25T10:28:55.468Z,7.33
2019-04-25T10:31:27.592Z,8.05
2019-04-25T10:33:59.864Z,6.90
2019-04-25T10:36:33.616Z,6.87
2019-04-25T10:39:11.126Z,7.22
2019-04-25T10:41:44.817Z,6.47
2019-04-25T10:44:16.673Z,7.20
2019-04-25T10:46:48.827Z,7.08
2019-04-25T10:49:20.626Z,7.05
2019-04-25T10:51:52.913Z,7.47
2019-04-25T10:54:25.816Z,6.83
2019-04-25T10:56:57.614Z,6.50
2019-04-25T10:59:29.433Z,6.90
2019-04-25T11:02:01.530Z,7.72
2019-04-25T11:04:47.170Z,6.60
2019-04-25T11:07:17.906Z,7.15
2019-04-25T11:09:49.777Z,6.20
2019-04-25T11:12:23.363Z,6.58
2019-04-25T11:14:56.264Z,7.45
2019-04-25T11:17:28.572Z,6.45
2019-04-25T11:20:00.896Z,6.12
2019-04-25T11:22:34.247Z,6.50
2019-04-25T11:25:06.746Z,6.95
2019-04-25T11:27:38.758Z,6.85
2019-04-25T11:30:11.801Z,7.00
2019-04-25T11:32:45.176Z,6.45
2019-04-25T11:35:18.106Z,7.17
2019-04-25T11:37:52.560Z,7.17
2019-04-25T11:40:40.074Z,6.80
2019-04-25T11:43:12.265Z,7.17
2019-04-25T11:45:45.075Z,6.65
2019-04-25T11:48:18.110Z,6.78
2019-04-25T11:50:52.450Z,6.12
2019-04-25T11:53:25.035Z,6.95
2019-04-25T11:55:57.367Z,6.55
2019-04-25T11:58:29.148Z,7.45
2019-04-25T12:01:01.260Z,6.80
2019-04-25T12:03:34.600Z,6.58
2019-04-25T12:06:06.604Z,6.55
2019-04-25T12:08:38.454Z,6.72
2019-04-25T12:11:10.299Z,6.45
2019-04-25T12:13:45.664Z,6.72
2019-04-25T12:16:16.069Z,6.70
2019-04-25T12:18:50.202Z,6.25
2019-04-25T12:21:21.573Z,6.08
2019-04-25T12:23:53.532Z,5.75
2019-04-25T12:26:26.343Z,6.47
2019-04-25T12:28:58.235Z,6.08
2019-04-25T12:31:30.042Z,6.33
2019-04-25T12:34:03.505Z,6.45
2019-04-25T12:36:35.509Z,6.22
2019-04-25T12:39:10.611Z,7.12
2019-04-25T12:41:45.562Z,7.25
2019-04-25T12:44:35.766Z,7.47
2019-04-25T12:47:13.624Z,6.92
2019-04-25T12:49:46.644Z,7.03
2019-04-25T12:52:19.820Z,7.75
2019-04-25T12:54:51.585Z,7.78
2019-04-25T12:57:24.148Z,7.67
2019-04-25T12:59:55.977Z,8.08
2019-04-25T13:02:28.808Z,7.80
2019-04-25T13:05:01.522Z,8.13
2019-04-25T13:07:35.059Z,6.95
2019-04-25T13:10:07.938Z,7.40
2019-04-25T13:12:39.891Z,6.87
2019-04-25T13:15:11.973Z,6.17
2019-04-25T13:17:43.850Z,6.92
2019-04-25T13:20:16.146Z,7.05
2019-04-25T13:22:47.969Z,7.87
2019-04-25T13:25:21.456Z,7.58
2019-04-25T13:28:11.156Z,6.83
2019-04-25T13:31:08.953Z,6.95
2019-04-25T13:33:43.319Z,7.05
2019-04-25T13:36:16.546Z,6.75
2019-04-25T13:38:48.455Z,6.15
2019-04-25T13:41:20.648Z,6.65
2019-04-25T13:43:53.060Z,6.58
2019-04-25T13:46:27.703Z,6.97
2019-04-25T13:48:59.743Z,6.55
2019-04-25T13:51:31.689Z,6.90
2019-04-25T13:54:03.521Z,7.10
2019-04-25T13:56:40.301Z,6.00
2019-04-25T13:59:09.116Z,6.05
2019-04-25T14:01:40.907Z,6.17
2019-04-25T14:04:14.243Z,6.45
2019-04-25T14:06:46.561Z,6.17
2019-04-25T14:09:21.406Z,7.03
2019-04-25T14:11:53.989Z,6.92
2019-04-25T14:14:26.791Z,6.75
2019-04-25T14:17:09.883Z,7.85
2019-04-25T14:20:04.272Z,7.60
2019-04-25T14:22:36.574Z,7.17
2019-04-25T14:25:08.662Z,6.30
2019-04-25T14:27:40.475Z,6.05
2019-04-25T14:30:13.984Z,6.28
2019-04-25T14:32:45.790Z,7.30
2019-04-25T14:35:17.930Z,5.87
2019-04-25T14:37:50.029Z,6.50
2019-04-25T14:40:23.001Z,6.42
2019-04-25T14:42:55.551Z,5.85
2019-04-25T14:45:27.489Z,5.53
2019-04-25T14:47:59.459Z,6.00
2019-04-25T14:50:31.864Z,6.35
2019-04-25T14:53:03.993Z,6.70
2019-04-25T14:55:54.644Z,6.37
2019-04-25T14:58:28.925Z,6.55
2019-04-25T15:01:00.700Z,6.37
2019-04-25T15:03:32.634Z,6.20
2019-04-25T15:06:04.432Z,6.10
2019-04-25T15:08:36.623Z,5.78
2019-04-25T15:11:08.467Z,6.47
2019-04-25T15:13:40.316Z,6.78
2019-04-25T15:16:12.119Z,6.33
2019-04-25T15:18:46.883Z,6.97
2019-04-25T15:21:18.823Z,6.72
2019-04-25T15:24:00.003Z,6.58
2019-04-25T15:26:25.072Z,6.10
2019-04-25T15:28:57.231Z,6.40
2019-04-25T15:31:30.277Z,5.62
2019-04-25T15:34:02.542Z,6.05
2019-04-25T15:36:41.358Z,6.33
2019-04-25T15:39:31.091Z,5.87
2019-04-25T15:42:15.299Z,5.87
2019-04-25T15:45:16.409Z,6.50
2019-04-25T15:47:48.322Z,5.95
2019-04-25T15:50:20.403Z,5.80
2019-04-25T15:52:52.352Z,6.45
2019-04-25T15:55:24.389Z,5.42
2019-04-25T15:57:56.222Z,5.72
2019-04-25T16:00:35.112Z,6.20
2019-04-25T16:03:08.386Z,5.90
2019-04-25T16:05:41.212Z,5.87
2019-04-25T16:08:13.160Z,6.05
2019-04-25T16:10:45.185Z,6.30
2019-04-25T16:13:17.118Z,5.85
2019-04-25T16:15:48.952Z,6.58
2019-04-25T16:18:20.810Z,6.60
2019-04-25T16:20:52.680Z,6.17
2019-04-25T16:23:24.547Z,6.28
2019-04-25T16:25:56.560Z,6.62
2019-04-25T16:28:28.834Z,6.25
2019-04-25T16:31:01.041Z,6.22
2019-04-25T16:33:33.229Z,6.17
2019-04-25T16:36:05.339Z,6.12
2019-04-25T16:38:37.329Z,5.70
2019-04-25T16:41:09.552Z,6.05
2019-04-25T16:43:44.592Z,5.72
2019-04-25T16:46:18.119Z,5.87
2019-04-25T16:48:50.148Z,5.25
2019-04-25T16:51:22.489Z,6.95
2019-04-25T16:53:54.607Z,6.25
2019-04-25T16:56:26.907Z,5.47
2019-04-25T16:58:58.683Z,6.40
2019-04-25T17:01:31.658Z,5.53
2019-04-25T17:04:03.818Z,6.35
2019-04-25T17:06:36.157Z,6.45
2019-04-25T17:09:08.548Z,6.47
2019-04-25T17:11:42.219Z,6.85
2019-04-25T17:14:37.480Z,5.65
2019-04-25T17:17:20.841Z,5.97
2019-04-25T17:20:10.277Z,6.58
2019-04-25T17:22:42.281Z,6.12
2019-04-25T17:25:14.353Z,7.33
2019-04-25T17:27:46.364Z,7.53
2019-04-25T17:30:20.172Z,6.22
2019-04-25T17:33:01.915Z,7.20
2019-04-25T17:35:47.314Z,7.35
2019-04-25T17:38:28.932Z,7.00
2019-04-25T17:41:00.715Z,8.23
2019-04-25T17:43:33.049Z,7.83
2019-04-25T17:46:06.632Z,9.68
2019-04-25T17:48:38.456Z,8.73
2019-04-25T17:51:10.323Z,8.25
2019-04-25T17:53:43.232Z,8.53
2019-04-25T17:56:15.274Z,8.75
2019-04-25T17:58:47.787Z,9.18
2019-04-25T18:01:23.944Z,8.68
2019-04-25T18:03:55.745Z,9.15
2019-04-25T18:06:27.544Z,8.25
2019-04-25T18:08:59.338Z,9.13
2019-04-25T18:11:31.181Z,9.50
2019-04-25T18:14:03.208Z,8.75
2019-04-25T18:16:42.367Z,8.30
2019-04-25T18:19:36.376Z,9.00
2019-04-25T18:22:43.395Z,8.35
2019-04-25T18:41:30.694Z,8.48
2019-04-25T18:44:04.079Z,9.63
2019-04-25T18:46:40.500Z,8.33
2019-04-25T18:49:12.832Z,8.53
2019-04-25T18:51:55.168Z,7.45
2019-04-25T18:54:29.355Z,8.90
2019-04-25T18:57:15.053Z,8.60
2019-04-25T18:59:52.687Z,9.08
2019-04-25T19:02:52.669Z,8.75
2019-04-25T19:05:43.664Z,9.43
2019-04-25T19:08:15.789Z,8.03
2019-04-25T19:10:47.704Z,9.40
2019-04-25T19:13:19.826Z,9.63
2019-04-25T19:15:51.953Z,10.75
2019-04-25T19:18:24.137Z,9.73
2019-04-25T19:20:56.083Z,10.20
2019-04-25T19:23:28.142Z,9.38
2019-04-25T19:26:00.164Z,10.13
2019-04-25T19:28:32.194Z,10.20
2019-04-25T19:31:04.360Z,10.45
2019-04-25T19:33:37.675Z,10.25
2019-04-25T19:36:09.785Z,9.83
2019-04-25T19:38:42.017Z,9.83
2019-04-25T19:41:22.883Z,10.28
2019-04-25T19:44:02.132Z,10.90
2019-04-25T19:46:46.974Z,10.55
2019-04-25T19:49:19.474Z,10.75
2019-04-25T19:51:51.985Z,11.03
2019-04-25T19:54:24.278Z,11.73
2019-04-25T19:56:56.571Z,11.40
2019-04-25T19:59:28.553Z,11.48
2019-04-25T20:02:05.423Z,11.43
2019-04-25T20:05:05.348Z,11.25
2019-04-25T20:07:45.498Z,12.18
2019-04-25T20:10:34.760Z,12.68
2019-04-25T20:13:07.028Z,12.23
2019-04-25T20:15:38.902Z,11.93
2019-04-25T20:18:10.924Z,11.88
2019-04-25T20:20:43.429Z,12.40
2019-04-25T20:23:16.420Z,11.68
2019-04-25T20:25:48.441Z,11.97
2019-04-25T20:28:20.421Z,12.58
2019-04-25T20:30:52.279Z,12.85
2019-04-25T20:33:24.171Z,12.73
2019-04-25T20:35:56.372Z,11.70
2019-04-25T20:38:29.466Z,12.03
2019-04-25T20:41:01.386Z,12.75
2019-04-25T20:43:33.444Z,11.80
2019-04-25T20:46:06.459Z,13.35
2019-04-25T20:48:38.375Z,13.65
2019-04-25T20:51:10.711Z,12.68
2019-04-25T20:53:42.573Z,14.07
2019-04-25T20:56:14.531Z,13.15
2019-04-25T20:58:47.691Z,13.38
2019-04-25T21:01:19.916Z,13.55
2019-04-25T21:03:52.093Z,13.58
2019-04-25T21:06:31.553Z,13.03
2019-04-25T21:09:03.735Z,13.62
2019-04-25T21:11:37.406Z,13.55
2019-04-25T21:14:27.099Z,13.00
2019-04-25T21:17:02.927Z,14.60
2019-04-25T21:19:37.919Z,13.88
2019-04-25T21:22:10.075Z,12.88
2019-04-25T21:24:41.863Z,12.88
2019-04-25T21:27:13.882Z,14.13
2019-04-25T21:29:45.740Z,13.65
2019-04-25T21:32:19.193Z,14.90
2019-04-25T21:34:51.686Z,12.15
2019-04-25T21:37:26.272Z,12.18
2019-04-25T21:40:14.408Z,12.37
2019-04-25T21:42:51.845Z,12.33
2019-04-25T21:45:25.163Z,12.45
2019-04-25T21:47:58.739Z,11.97
2019-04-25T21:50:31.065Z,12.20
2019-04-25T21:53:03.824Z,13.32
2019-04-25T21:55:36.344Z,12.28
2019-04-25T21:58:08.602Z,12.50
2019-04-25T22:01:02.687Z,13.00
2019-04-25T22:03:36.610Z,14.83
2019-04-25T22:06:09.273Z,14.50
2019-04-25T22:08:41.434Z,15.25
2019-04-25T22:11:13.257Z,14.73
2019-04-25T22:13:45.846Z,13.88
2019-04-25T22:16:18.194Z,14.25
2019-04-25T22:18:50.600Z,15.08
2019-04-25T22:21:23.218Z,16.93
2019-04-25T22:24:06.185Z,15.43
2019-04-25T22:26:29.400Z,15.32
2019-04-25T22:29:03.359Z,16.25
2019-04-25T22:31:41.959Z,16.10
2019-04-25T22:34:35.472Z,16.17
2019-04-25T22:37:08.305Z,17.05
2019-04-25T22:39:40.395Z,13.55
2019-04-25T22:42:14.288Z,16.70
2019-04-25T22:44:46.104Z,16.57
2019-04-25T22:47:19.147Z,15.90
2019-04-25T22:49:51.481Z,16.23
2019-04-25T22:52:23.673Z,15.70
2019-04-25T22:54:56.917Z,15.18
2019-04-25T22:57:28.849Z,14.93
2019-04-25T23:00:01.920Z,16.17
2019-04-25T23:02:45.523Z,17.27
2019-04-25T23:05:24.236Z,15.58
2019-04-25T23:07:56.058Z,15.95
2019-04-25T23:10:28.753Z,16.75
2019-04-25T23:13:00.565Z,17.92
2019-04-25T23:15:33.444Z,16.32
2019-04-25T23:18:07.144Z,16.93
2019-04-25T23:20:40.448Z,16.42
2019-04-25T23:23:13.576Z,16.52
2019-04-25T23:26:06.465Z,17.98
2019-04-25T23:28:41.099Z,15.98
2019-04-25T23:31:16.841Z,15.38
2019-04-25T23:33:48.778Z,16.17
2019-04-25T23:36:21.275Z,15.53
2019-04-25T23:38:53.019Z,16.27
2019-04-25T23:41:25.525Z,15.35
2019-04-25T23:43:57.330Z,15.63
2019-04-25T23:46:29.653Z,16.73
2019-04-25T23:49:01.438Z,15.28
2019-04-25T23:51:33.587Z,17.40
2019-04-25T23:54:07.447Z,16.02
2019-04-25T23:56:39.532Z,16.75
2019-04-25T23:59:11.729Z,15.55
